Time;durP1;ratioP1;P1;durP2;ratioP2;P2;SDS_P1;SDS_P2;PMS_P1;PMS_P2;Temp;Humidity;BMP_temperature;BMP_pressure;BME280_temperature;BME280_humidity;BME280_pressure;Samples;Min_cycle;Max_cycle;Signal;HPM_P1;HPM_P2
2023/07/01 00:00:14;;;;;;;4.85;2.92;;;;;;;23.91;46.58;98822.34;4372560;32;35235;-62
2023/07/01 00:02:48;;;;;;;4.45;2.58;;;;;;;23.90;46.53;98825.31;4373976;32;34051;-62
2023/07/01 00:05:15;;;;;;;4.43;2.80;;;;;;;23.90;46.36;98828.06;4373230;32;33774;-63
2023/07/01 00:07:43;;;;;;;4.95;3.03;;;;;;;23.86;46.42;98833.13;4375426;32;33642;-61
2023/07/01 00:10:10;;;;;;;6.10;3.35;;;;;;;23.87;46.45;98831.22;4365202;32;33460;-61
2023/07/01 00:12:38;;;;;;;5.00;3.20;;;;;;;23.88;46.41;98827.41;4375053;32;34128;-62
2023/07/01 00:15:06;;;;;;;6.62;3.15;;;;;;;23.84;46.56;98829.75;4371307;32;35089;-62
2023/07/01 00:17:33;;;;;;;5.65;3.35;;;;;;;23.80;46.64;98830.44;4364641;32;34518;-63
2023/07/01 00:20:01;;;;;;;5.85;3.03;;;;;;;23.75;46.73;98822.91;4373798;32;32488;-63
2023/07/01 00:22:30;;;;;;;8.18;3.60;;;;;;;23.67;46.97;98824.00;4375439;32;34033;-63
2023/07/01 00:24:57;;;;;;;14.32;2.90;;;;;;;23.67;47.00;98820.44;4372238;32;33683;-63
2023/07/01 00:27:25;;;;;;;5.70;3.10;;;;;;;23.69;46.85;98819.19;4375323;32;33445;-63
2023/07/01 00:29:52;;;;;;;6.22;3.65;;;;;;;23.66;46.90;98819.59;4369558;32;33215;-61
2023/07/01 00:32:20;;;;;;;5.50;3.53;;;;;;;23.65;46.94;98817.91;4367318;32;34072;-62
2023/07/01 00:34:48;;;;;;;5.25;2.87;;;;;;;23.57;47.09;98818.19;4363348;32;33420;-62
2023/07/01 00:37:15;;;;;;;4.68;2.15;;;;;;;23.58;47.02;98822.59;4373842;32;33154;-61
2023/07/01 00:39:43;;;;;;;5.43;3.00;;;;;;;23.54;47.05;98818.63;4374036;32;33659;-63
2023/07/01 00:42:12;;;;;;;4.30;2.87;;;;;;;23.54;47.04;98815.06;4374681;32;33999;-61
2023/07/01 00:44:40;;;;;;;7.03;2.55;;;;;;;23.43;47.38;98814.69;4374429;32;34040;-63
2023/07/01 00:47:08;;;;;;;3.03;2.08;;;;;;;23.52;47.14;98807.09;4371857;32;33369;-62
2023/07/01 00:49:36;;;;;;;5.65;2.83;;;;;;;23.52;47.08;98808.97;4373645;32;33768;-63
2023/07/01 00:52:06;;;;;;;5.57;3.12;;;;;;;23.42;47.17;98809.47;4326722;33;33374;-62
2023/07/01 00:54:37;;;;;;;5.97;3.65;;;;;;;23.43;47.17;98806.50;4326369;33;34081;-63
2023/07/01 00:57:06;;;;;;;5.90;3.47;;;;;;;23.33;47.49;98806.16;4327973;33;31653;-63
2023/07/01 00:59:34;;;;;;;6.45;3.28;;;;;;;23.21;47.62;98797.84;4325368;33;33481;-63
2023/07/01 01:02:08;;;;;;;5.80;3.53;;;;;;;23.36;47.46;98802.16;4325490;33;35629;-62
2023/07/01 01:04:47;;;;;;;7.18;3.00;;;;;;;23.32;47.46;98801.75;4322036;33;33753;-63
2023/07/01 01:07:25;;;;;;;7.60;3.42;;;;;;;23.33;47.48;98797.97;4324274;33;33683;-62
2023/07/01 01:09:56;;;;;;;6.57;3.22;;;;;;;23.27;47.56;98790.66;4310478;33;33569;-62
2023/07/01 01:12:26;;;;;;;6.90;3.75;;;;;;;23.22;47.69;98794.06;4326811;33;35108;-63
2023/07/01 01:14:54;;;;;;;7.03;3.12;;;;;;;23.23;47.68;98779.34;4315574;33;33768;-63
2023/07/01 01:17:24;;;;;;;4.22;2.40;;;;;;;23.25;47.60;98781.87;4311991;33;33258;-61
2023/07/01 01:19:58;;;;;;;5.47;3.17;;;;;;;23.22;47.81;98777.69;4313063;33;33381;-63
2023/07/01 01:22:33;;;;;;;6.25;2.95;;;;;;;23.17;48.03;98771.19;4321663;32;33946;-62
2023/07/01 01:25:10;;;;;;;4.65;2.80;;;;;;;23.22;47.88;98774.13;4359104;32;34506;-62
2023/07/01 01:27:42;;;;;;;6.37;2.55;;;;;;;23.17;47.88;98782.94;4361253;32;33535;-61
2023/07/01 01:30:10;;;;;;;4.55;2.72;;;;;;;23.16;47.77;98769.53;4358245;32;33354;-62
2023/07/01 01:32:38;;;;;;;5.32;3.10;;;;;;;23.13;47.73;98773.53;4373312;32;33708;-63
2023/07/01 01:35:06;;;;;;;6.12;3.65;;;;;;;23.00;48.09;98779.06;4375082;32;34098;-62
2023/07/01 01:37:48;;;;;;;5.15;2.92;;;;;;;23.13;47.80;98775.44;4375388;32;33367;-62
2023/07/01 01:40:46;;;;;;;5.70;3.30;;;;;;;23.10;47.90;98776.69;4355319;32;33503;-62
2023/07/01 01:43:20;;;;;;;6.72;3.42;;;;;;;23.09;47.92;98783.22;4358908;32;33917;-62
2023/07/01 01:45:48;;;;;;;5.50;2.80;;;;;;;23.11;47.88;98772.06;4366299;32;34928;-63
2023/07/01 01:48:16;;;;;;;7.32;3.42;;;;;;;23.07;47.92;98781.75;4374675;32;33517;-63
2023/07/01 01:50:47;;;;;;;4.62;3.28;;;;;;;22.99;48.15;98774.69;4361036;32;34577;-62
2023/07/01 01:53:16;;;;;;;8.43;2.80;;;;;;;23.05;47.81;98775.66;4359127;32;33773;-63
2023/07/01 01:55:44;;;;;;;5.97;3.50;;;;;;;22.99;47.97;98778.25;4362572;32;33894;-63
2023/07/01 01:58:11;;;;;;;5.97;2.83;;;;;;;22.96;48.01;98780.56;4360016;32;33734;-63
2023/07/01 02:00:39;;;;;;;6.07;3.50;;;;;;;22.94;48.00;98780.78;4372906;32;33739;-63
2023/07/01 02:03:08;;;;;;;4.70;2.90;;;;;;;22.97;47.94;98769.41;4373657;32;35234;-63
2023/07/01 02:05:36;;;;;;;6.28;3.45;;;;;;;22.91;47.94;98763.97;4375799;32;34539;-62
2023/07/01 02:08:04;;;;;;;5.82;3.53;;;;;;;22.90;48.04;98768.59;4363968;32;33747;-63
2023/07/01 02:10:32;;;;;;;5.57;3.35;;;;;;;22.85;48.12;98768.41;4373544;32;34041;-63
2023/07/01 02:13:01;;;;;;;4.90;2.67;;;;;;;22.88;47.93;98762.50;4368539;32;35263;-63
2023/07/01 02:15:29;;;;;;;5.22;3.62;;;;;;;22.84;47.98;98764.00;4373476;32;35056;-62
2023/07/01 02:17:57;;;;;;;10.25;3.95;;;;;;;22.84;48.05;98771.38;4374780;32;33449;-63
2023/07/01 02:20:25;;;;;;;5.15;2.78;;;;;;;22.76;48.12;98773.28;4375589;32;33961;-62
2023/07/01 02:22:52;;;;;;;6.95;3.42;;;;;;;22.74;48.30;98771.81;4374622;32;33804;-61
2023/07/01 02:25:20;;;;;;;5.97;2.95;;;;;;;22.71;48.06;98772.25;4376570;32;34925;-62
2023/07/01 02:27:48;;;;;;;5.35;3.22;;;;;;;22.64;48.49;98763.28;4372221;32;33608;-60
2023/07/01 02:30:16;;;;;;;4.28;2.80;;;;;;;22.58;48.49;98767.69;4368714;32;34684;-60
2023/07/01 02:32:44;;;;;;;6.35;3.45;;;;;;;22.63;48.57;98773.34;4369370;32;35249;-60
2023/07/01 02:35:12;;;;;;;4.60;2.83;;;;;;;22.27;49.34;98771.97;4372029;32;34352;-61
2023/07/01 02:37:39;;;;;;;6.60;3.62;;;;;;;22.27;49.53;98774.69;4375813;32;33586;-61
2023/07/01 02:40:08;;;;;;;5.95;3.90;;;;;;;22.23;49.63;98772.63;4373388;32;33863;-61
2023/07/01 02:42:35;;;;;;;5.60;3.37;;;;;;;22.37;49.24;98757.06;4374055;32;35024;-61
2023/07/01 02:45:04;;;;;;;9.25;3.15;;;;;;;22.28;49.53;98760.03;4374628;32;34198;-60
2023/07/01 02:47:32;;;;;;;5.43;3.42;;;;;;;22.28;49.48;98761.94;4375584;32;34385;-60
2023/07/01 02:50:00;;;;;;;5.30;3.28;;;;;;;22.32;49.32;98769.47;4370672;32;35057;-61
2023/07/01 02:52:30;;;;;;;7.07;3.37;;;;;;;22.24;49.50;98766.13;4376068;32;33917;-60
2023/07/01 02:54:57;;;;;;;11.90;3.12;;;;;;;22.20;49.72;98762.16;4375479;32;34163;-61
2023/07/01 02:57:25;;;;;;;6.18;3.65;;;;;;;22.07;50.24;98774.72;4373892;32;35093;-61
2023/07/01 02:59:54;;;;;;;5.28;3.28;;;;;;;22.18;49.79;98773.25;4371936;32;34395;-61
2023/07/01 03:02:22;;;;;;;6.60;3.80;;;;;;;22.14;50.14;98774.72;4375989;32;33948;-61
2023/07/01 03:04:50;;;;;;;7.35;3.42;;;;;;;22.22;49.83;98770.97;4373915;32;33737;-60
2023/07/01 03:07:17;;;;;;;4.45;3.12;;;;;;;22.29;49.65;98766.34;4375515;32;33517;-61
2023/07/01 03:09:45;;;;;;;6.70;3.83;;;;;;;22.18;50.10;98775.16;4374747;32;33706;-61
2023/07/01 03:12:13;;;;;;;6.22;4.05;;;;;;;22.10;50.17;98777.03;4376445;32;33670;-62
2023/07/01 03:14:40;;;;;;;14.63;3.97;;;;;;;22.22;49.87;98777.25;4374561;32;34831;-60
2023/07/01 03:17:08;;;;;;;9.15;3.65;;;;;;;22.23;49.81;98765.28;4376814;32;33776;-60
2023/07/01 03:19:36;;;;;;;7.97;3.72;;;;;;;22.11;50.03;98766.97;4373583;32;33921;-60
2023/07/01 03:22:04;;;;;;;8.60;4.40;;;;;;;22.22;49.56;98765.53;4372236;32;33693;-60
2023/07/01 03:24:33;;;;;;;7.20;3.20;;;;;;;22.19;49.79;98761.31;4373882;32;33755;-60
2023/07/01 03:27:03;;;;;;;7.05;4.03;;;;;;;22.31;49.72;98753.31;4373080;32;33530;-61
2023/07/01 03:29:30;;;;;;;5.80;3.55;;;;;;;22.39;49.56;98763.16;4374500;32;33856;-60
2023/07/01 03:31:58;;;;;;;5.85;3.92;;;;;;;22.47;49.30;98762.91;4376320;32;33894;-60
2023/07/01 03:34:26;;;;;;;4.72;3.17;;;;;;;22.56;48.86;98761.59;4374284;32;33995;-59
2023/07/01 03:36:53;;;;;;;6.90;3.50;;;;;;;22.61;48.82;98763.72;4374142;32;33707;-59
2023/07/01 03:39:21;;;;;;;5.85;3.90;;;;;;;22.64;49.26;98758.66;4372412;32;34458;-59
2023/07/01 03:41:48;;;;;;;5.75;4.00;;;;;;;22.75;48.71;98762.59;4370763;32;35206;-60
2023/07/01 03:44:16;;;;;;;5.00;3.37;;;;;;;22.85;48.39;98771.12;4369286;32;34079;-59
2023/07/01 03:46:43;;;;;;;8.15;3.92;;;;;;;22.93;48.47;98761.88;4373199;32;33556;-59
2023/07/01 03:49:11;;;;;;;5.97;3.35;;;;;;;23.01;48.30;98762.47;4369110;32;33522;-60
2023/07/01 03:51:41;;;;;;;5.85;3.22;;;;;;;23.11;48.23;98761.16;4374679;32;35391;-59
2023/07/01 03:54:09;;;;;;;6.53;3.78;;;;;;;23.17;47.89;98763.84;4374982;32;35430;-59
2023/07/01 03:56:37;;;;;;;5.30;3.12;;;;;;;23.19;48.00;98759.00;4356256;32;33330;-60
2023/07/01 03:59:04;;;;;;;5.00;3.47;;;;;;;23.24;48.08;98753.72;4373629;32;33884;-60
2023/07/01 04:01:32;;;;;;;6.18;3.92;;;;;;;23.34;48.10;98758.72;4368531;32;33782;-60
2023/07/01 04:04:00;;;;;;;7.72;3.87;;;;;;;23.48;47.90;98760.25;4375328;32;33958;-60
2023/07/01 04:06:28;;;;;;;5.07;3.70;;;;;;;23.58;47.71;98757.03;4374153;32;33114;-60
2023/07/01 04:08:55;;;;;;;7.60;4.55;;;;;;;23.61;47.34;98758.50;4375068;32;33873;-60
2023/07/01 04:11:23;;;;;;;6.93;4.47;;;;;;;23.63;47.08;98759.13;4373138;32;34289;-60
2023/07/01 04:13:51;;;;;;;7.10;4.35;;;;;;;23.64;47.08;98755.31;4370973;32;35367;-60
2023/07/01 04:16:19;;;;;;;5.28;3.47;;;;;;;23.73;47.02;98753.19;4369644;32;33210;-60
2023/07/01 04:18:46;;;;;;;5.68;3.40;;;;;;;23.80;46.93;98751.22;4374708;32;34604;-60
2023/07/01 04:21:14;;;;;;;12.52;4.22;;;;;;;23.88;46.97;98753.66;4375324;32;33593;-59
2023/07/01 04:23:41;;;;;;;11.38;4.57;;;;;;;23.96;46.99;98749.81;4374510;32;33911;-59
2023/07/01 04:26:09;;;;;;;7.28;3.87;;;;;;;24.03;46.96;98740.47;4370267;32;34539;-60
2023/07/01 04:28:37;;;;;;;8.05;4.43;;;;;;;24.11;47.03;98753.03;4372119;32;33577;-60
2023/07/01 04:31:04;;;;;;;11.57;4.65;;;;;;;24.20;47.21;98745.34;4371085;32;33948;-59
2023/07/01 04:33:32;;;;;;;6.07;4.05;;;;;;;24.04;48.00;98744.03;4373740;32;34134;-60
2023/07/01 04:36:00;;;;;;;7.20;3.33;;;;;;;24.21;48.15;98744.28;4371820;32;33419;-62
2023/07/01 04:38:27;;;;;;;8.20;4.18;;;;;;;24.46;47.78;98739.59;4374554;32;35150;-61
2023/07/01 04:40:55;;;;;;;9.73;4.68;;;;;;;24.60;47.41;98745.75;4375123;32;33949;-62
2023/07/01 04:43:22;;;;;;;5.85;3.65;;;;;;;24.68;47.01;98750.06;4375683;32;34004;-60
2023/07/01 04:45:50;;;;;;;7.50;3.75;;;;;;;24.69;46.71;98752.59;4373845;32;33254;-61
2023/07/01 04:48:19;;;;;;;6.22;4.25;;;;;;;24.76;46.87;98752.50;4371594;32;33139;-61
2023/07/01 04:50:46;;;;;;;5.72;3.58;;;;;;;24.82;46.86;98749.66;4370411;32;33846;-60
2023/07/01 04:53:14;;;;;;;5.95;3.83;;;;;;;24.88;47.15;98745.19;4371775;32;35434;-61
2023/07/01 04:55:42;;;;;;;18.02;4.25;;;;;;;24.94;47.44;98743.37;4373778;32;34656;-61
2023/07/01 04:58:10;;;;;;;9.15;4.87;;;;;;;24.86;48.20;98750.03;4373825;32;33598;-61
2023/07/01 05:00:37;;;;;;;8.40;4.78;;;;;;;25.10;47.95;98735.37;4367231;32;35056;-61
2023/07/01 05:03:05;;;;;;;24.75;5.20;;;;;;;25.22;47.67;98738.16;4369962;32;34398;-61
2023/07/01 05:05:33;;;;;;;6.30;4.25;;;;;;;25.19;47.09;98733.16;4374812;32;33557;-60
2023/07/01 05:08:00;;;;;;;6.47;4.05;;;;;;;25.26;47.03;98738.53;4368100;32;33800;-61
2023/07/01 05:10:28;;;;;;;6.00;3.70;;;;;;;25.29;47.03;98741.63;4375458;32;33848;-61
2023/07/01 05:12:56;;;;;;;8.23;5.10;;;;;;;25.23;47.29;98734.38;4374342;32;34932;-60
2023/07/01 05:15:24;;;;;;;4.78;3.90;;;;;;;24.89;48.07;98743.28;4374567;32;33594;-60
2023/07/01 05:17:52;;;;;;;12.70;5.30;;;;;;;25.17;48.04;98737.19;4375873;32;34638;-61
2023/07/01 05:20:19;;;;;;;5.25;3.65;;;;;;;25.05;47.51;98737.13;4374098;32;35312;-61
2023/07/01 05:22:47;;;;;;;7.60;5.22;;;;;;;25.10;47.44;98737.25;4374018;32;33671;-61
2023/07/01 05:25:14;;;;;;;6.85;4.60;;;;;;;25.31;47.06;98742.25;4376017;32;34950;-61
2023/07/01 05:27:42;;;;;;;12.27;4.15;;;;;;;25.55;47.32;98745.88;4373981;32;33724;-61
2023/07/01 05:30:09;;;;;;;9.10;4.62;;;;;;;25.70;47.71;98753.63;4374586;32;35329;-61
2023/07/01 05:32:37;;;;;;;7.25;4.87;;;;;;;25.55;46.71;98758.72;4375004;32;33913;-60
2023/07/01 05:35:05;;;;;;;6.50;4.22;;;;;;;25.78;46.33;98760.66;4374168;32;34477;-60
2023/07/01 05:37:33;;;;;;;8.68;4.65;;;;;;;25.92;45.98;98750.34;4373815;32;33322;-64
2023/07/01 05:40:00;;;;;;;7.60;4.78;;;;;;;26.02;45.73;98750.56;4371116;32;33965;-61
2023/07/01 05:42:28;;;;;;;8.35;4.85;;;;;;;26.05;45.06;98752.81;4375521;32;34111;-61
2023/07/01 05:44:55;;;;;;;7.12;4.00;;;;;;;26.16;45.07;98762.97;4371348;32;32283;-61
2023/07/01 05:47:23;;;;;;;7.40;4.72;;;;;;;26.10;45.35;98754.84;4372754;32;34703;-61
2023/07/01 05:49:50;;;;;;;6.25;4.25;;;;;;;26.19;44.86;98756.97;4375703;32;34972;-60
2023/07/01 05:52:18;;;;;;;12.15;5.00;;;;;;;26.05;45.23;98762.97;4374406;32;35300;-60
2023/07/01 05:54:46;;;;;;;8.10;4.87;;;;;;;26.02;44.75;98756.03;4373025;32;34413;-61
2023/07/01 05:57:14;;;;;;;7.37;4.12;;;;;;;26.10;45.39;98752.97;4375912;32;34275;-61
2023/07/01 05:59:41;;;;;;;8.45;4.10;;;;;;;26.20;45.46;98750.44;4372827;32;35185;-61
2023/07/01 06:02:09;;;;;;;15.63;4.70;;;;;;;26.28;45.71;98748.41;4375438;32;34043;-61
2023/07/01 06:04:37;;;;;;;8.05;4.35;;;;;;;25.98;45.61;98758.44;4375333;32;33900;-61
2023/07/01 06:07:04;;;;;;;10.85;5.20;;;;;;;26.15;44.26;98753.06;4375872;32;34729;-61
2023/07/01 06:09:32;;;;;;;10.20;4.03;;;;;;;26.37;44.59;98752.44;4368914;32;33755;-61
2023/07/01 06:12:00;;;;;;;7.25;4.40;;;;;;;26.36;44.79;98754.34;4370033;32;34376;-61
2023/07/01 06:14:27;;;;;;;8.55;5.12;;;;;;;26.62;44.21;98755.75;4375300;32;33661;-61
2023/07/01 06:16:55;;;;;;;12.32;5.18;;;;;;;26.43;44.04;98763.28;4366318;32;33437;-60
2023/07/01 06:19:22;;;;;;;10.63;5.40;;;;;;;26.45;44.99;98757.53;4366091;32;35406;-61
2023/07/01 06:21:50;;;;;;;8.13;5.20;;;;;;;26.75;44.22;98760.13;4372879;32;33779;-61
2023/07/01 06:24:17;;;;;;;10.27;4.95;;;;;;;26.83;44.33;98753.41;4371580;32;34397;-61
2023/07/01 06:26:45;;;;;;;9.10;4.95;;;;;;;26.74;44.10;98763.94;4370728;32;33711;-61
2023/07/01 06:29:13;;;;;;;14.38;4.95;;;;;;;26.85;44.12;98765.81;4375138;32;33676;-61
2023/07/01 06:31:41;;;;;;;9.38;4.95;;;;;;;26.89;43.20;98761.50;4369705;32;34204;-61
2023/07/01 06:34:15;;;;;;;9.77;5.05;;;;;;;26.59;44.54;98766.37;4374049;32;33715;-61
2023/07/01 06:36:43;;;;;;;7.82;5.15;;;;;;;26.62;43.87;98766.72;4375832;32;35117;-61
2023/07/01 06:39:12;;;;;;;6.80;4.45;;;;;;;26.93;43.38;98764.59;4374522;32;35362;-61
2023/07/01 06:41:40;;;;;;;7.62;4.57;;;;;;;27.18;44.08;98762.34;4375194;32;33968;-60
2023/07/01 06:44:07;;;;;;;8.50;4.75;;;;;;;27.25;43.02;98755.88;4375754;32;33441;-61
2023/07/01 06:46:35;;;;;;;6.45;4.57;;;;;;;26.97;42.93;98760.28;4372661;32;34766;-61
2023/07/01 06:49:02;;;;;;;11.18;5.53;;;;;;;27.27;42.38;98759.22;4375818;32;34161;-60
2023/07/01 06:51:30;;;;;;;6.53;3.87;;;;;;;27.25;43.07;98756.72;4374790;32;33802;-61
2023/07/01 06:53:58;;;;;;;5.75;4.10;;;;;;;27.43;43.07;98754.84;4374592;32;32036;-61
2023/07/01 06:56:25;;;;;;;6.65;4.28;;;;;;;27.46;41.99;98755.16;4371106;32;35028;-61
2023/07/01 06:58:53;;;;;;;5.95;4.20;;;;;;;26.94;42.87;98753.38;4373599;32;34659;-61
2023/07/01 07:01:20;;;;;;;9.48;5.03;;;;;;;26.71;44.35;98748.81;4365946;32;34936;-61
2023/07/01 07:03:48;;;;;;;6.10;3.83;;;;;;;27.28;43.09;98755.38;4357467;32;34644;-61
2023/07/01 07:06:15;;;;;;;6.62;4.03;;;;;;;27.48;43.18;98750.28;4357885;32;33568;-61
2023/07/01 07:08:43;;;;;;;10.18;4.68;;;;;;;27.27;42.09;98745.50;4355876;32;34933;-61
2023/07/01 07:11:11;;;;;;;8.25;4.53;;;;;;;27.30;42.40;98745.81;4362163;32;33642;-62
2023/07/01 07:13:38;;;;;;;9.65;4.93;;;;;;;27.57;41.56;98743.25;4349584;32;34446;-60
2023/07/01 07:16:06;;;;;;;6.97;3.78;;;;;;;27.58;40.96;98742.19;4357834;32;34975;-60
2023/07/01 07:18:33;;;;;;;6.43;3.65;;;;;;;27.85;40.88;98747.03;4358901;32;34974;-60
2023/07/01 07:21:01;;;;;;;6.75;3.85;;;;;;;27.58;41.21;98736.69;4361132;32;34896;-60
2023/07/01 07:23:29;;;;;;;7.43;4.55;;;;;;;27.74;39.90;98734.19;4357779;32;34908;-60
2023/07/01 07:25:56;;;;;;;6.37;3.78;;;;;;;27.38;41.38;98739.06;4359270;32;34713;-60
2023/07/01 07:28:24;;;;;;;5.78;4.15;;;;;;;27.89;39.65;98739.12;4364090;32;34914;-60
2023/07/01 07:30:52;;;;;;;6.57;4.32;;;;;;;27.84;40.40;98735.22;4367644;32;34824;-60
2023/07/01 07:33:19;;;;;;;8.80;4.65;;;;;;;27.95;39.81;98727.09;4359086;32;33640;-60
2023/07/01 07:35:47;;;;;;;8.10;4.60;;;;;;;27.84;40.42;98728.87;4363118;32;33398;-60
2023/07/01 07:38:15;;;;;;;15.52;4.57;;;;;;;27.94;39.59;98726.28;4367760;32;34026;-60
2023/07/01 07:40:43;;;;;;;8.32;4.50;;;;;;;27.54;39.92;98723.69;4357918;32;33889;-60
2023/07/01 07:43:11;;;;;;;8.68;4.07;;;;;;;27.80;39.76;98728.56;4368763;32;33747;-60
2023/07/01 07:45:39;;;;;;;8.45;5.30;;;;;;;27.91;39.80;98720.44;4359693;32;34746;-60
2023/07/01 07:48:07;;;;;;;8.10;5.28;;;;;;;27.93;40.07;98721.00;4367566;32;33714;-60
2023/07/01 07:52:14;;;;;;;7.90;5.03;;;;;;;28.77;39.76;98710.59;4511103;31;140835;-60
2023/07/01 07:54:42;;;;;;;6.75;4.40;;;;;;;28.77;39.76;98710.59;4490430;31;33686;-61
2023/07/01 07:57:10;;;;;;;9.23;4.35;;;;;;;28.22;39.69;98714.31;4491956;31;33476;-61
2023/07/01 07:59:37;;;;;;;7.78;4.45;;;;;;;28.18;40.15;98717.81;4481778;31;34203;-61
2023/07/01 08:02:05;;;;;;;6.57;4.78;;;;;;;27.85;41.03;98709.38;4481280;31;33509;-61
2023/07/01 08:04:33;;;;;;;7.43;4.35;;;;;;;27.89;40.72;98709.69;4486680;31;32943;-61
2023/07/01 08:07:01;;;;;;;6.85;4.43;;;;;;;28.28;40.75;98704.19;4486395;31;33531;-61
2023/07/01 08:09:32;;;;;;;6.68;4.70;;;;;;;28.30;41.02;98700.09;4487408;31;33787;-62
2023/07/01 08:12:00;;;;;;;7.22;4.53;;;;;;;28.58;40.54;98694.69;4480010;31;33537;-61
2023/07/01 08:14:29;;;;;;;8.32;5.12;;;;;;;28.68;40.85;98695.63;4480122;32;33132;-61
2023/07/01 08:16:59;;;;;;;7.75;4.57;;;;;;;28.65;39.79;98692.56;4488560;31;33706;-61
2023/07/01 08:19:27;;;;;;;7.90;4.87;;;;;;;28.44;39.74;98697.81;4485933;31;33778;-61
2023/07/01 08:21:54;;;;;;;11.00;5.72;;;;;;;28.19;40.09;98697.47;4490464;31;33744;-61
2023/07/01 08:24:21;;;;;;;12.05;6.07;;;;;;;28.60;39.80;98682.31;4488556;31;33219;-61
2023/07/01 08:26:49;;;;;;;8.10;4.97;;;;;;;28.78;40.56;98689.41;4479611;31;33695;-61
2023/07/01 08:29:17;;;;;;;10.27;5.30;;;;;;;29.01;39.18;98678.09;4488257;31;34961;-61
2023/07/01 08:31:44;;;;;;;7.20;4.85;;;;;;;28.99;38.43;98685.78;4487764;31;33768;-61
2023/07/01 08:34:12;;;;;;;6.47;4.18;;;;;;;28.70;39.27;98687.97;4489486;31;34446;-61
2023/07/01 08:36:40;;;;;;;7.43;5.03;;;;;;;28.72;39.02;98685.75;4491687;31;35516;-61
2023/07/01 08:39:07;;;;;;;7.10;4.57;;;;;;;28.93;38.46;98673.03;4492591;31;33839;-61
2023/07/01 08:41:51;;;;;;;9.55;4.97;;;;;;;28.97;38.47;98674.19;4484130;31;33444;-61
2023/07/01 08:44:19;;;;;;;7.22;4.55;;;;;;;29.07;38.42;98676.22;4479262;31;34451;-61
2023/07/01 08:46:52;;;;;;;8.60;5.00;;;;;;;29.42;36.74;98678.47;4481968;31;33639;-61
2023/07/01 08:49:22;;;;;;;7.53;5.03;;;;;;;29.72;36.84;98677.06;4482486;31;35388;-61
2023/07/01 08:52:09;;;;;;;6.50;4.25;;;;;;;29.56;36.68;98680.78;4481495;31;33586;-61
2023/07/01 08:54:37;;;;;;;7.82;4.20;;;;;;;29.59;37.50;98678.31;4486068;31;33173;-61
2023/07/01 08:57:07;;;;;;;6.45;4.53;;;;;;;29.61;35.97;98680.84;4481782;31;33697;-61
2023/07/01 08:59:35;;;;;;;8.20;3.95;;;;;;;29.93;34.52;98675.28;4475243;31;34052;-61
2023/07/01 09:02:03;;;;;;;7.18;4.57;;;;;;;29.82;35.29;98681.81;4477960;31;33443;-61
2023/07/01 09:04:31;;;;;;;9.52;4.90;;;;;;;29.78;35.78;98684.28;4468823;31;33384;-61
2023/07/01 09:06:58;;;;;;;9.48;4.35;;;;;;;29.97;36.67;98675.56;4468614;31;33628;-61
2023/07/01 09:09:26;;;;;;;6.95;4.25;;;;;;;30.05;36.67;98680.56;4467246;31;33731;-62
2023/07/01 09:11:53;;;;;;;8.05;4.32;;;;;;;30.11;36.13;98680.34;4481315;31;33321;-63
2023/07/01 09:14:22;;;;;;;7.18;3.95;;;;;;;30.11;35.67;98680.34;4481522;31;33092;-62
2023/07/01 09:16:49;;;;;;;7.47;5.03;;;;;;;29.92;35.29;98679.97;4473269;31;34921;-63
2023/07/01 09:19:21;;;;;;;6.47;4.10;;;;;;;30.15;35.57;98675.94;4481396;31;32733;-62
2023/07/01 09:21:48;;;;;;;9.77;4.15;;;;;;;29.93;35.91;98683.56;4479921;31;33523;-63
2023/07/01 09:24:16;;;;;;;6.32;4.15;;;;;;;29.93;35.36;98676.09;4469949;31;33391;-63
2023/07/01 09:26:52;;;;;;;5.70;3.60;;;;;;;30.05;34.82;98675.03;4462264;31;33623;-63
2023/07/01 09:29:24;;;;;;;6.07;4.45;;;;;;;30.33;35.93;98676.59;4472847;31;35797;-61
2023/07/01 09:31:52;;;;;;;6.95;4.70;;;;;;;30.55;34.32;98674.47;4474667;31;34556;-61
2023/07/01 09:34:21;;;;;;;8.50;5.07;;;;;;;30.12;36.40;98668.19;4472331;31;33300;-63
2023/07/01 09:36:49;;;;;;;6.50;4.45;;;;;;;30.33;34.75;98668.31;4476969;31;34614;-61
2023/07/01 09:39:37;;;;;;;9.05;4.78;;;;;;;30.74;34.42;98668.47;4478140;31;33818;-63
2023/07/01 09:42:05;;;;;;;6.70;4.72;;;;;;;30.76;36.48;98663.50;4474418;31;33395;-62
2023/07/01 09:44:35;;;;;;;8.85;4.72;;;;;;;30.64;35.11;98666.50;4472678;31;33006;-63
2023/07/01 09:47:04;;;;;;;4.93;2.92;;;;;;;30.49;35.41;98664.50;4477035;31;35180;-63
2023/07/01 09:49:40;;;;;;;8.45;4.45;;;;;;;30.77;34.06;98668.78;4479238;31;34006;-63
2023/07/01 09:52:08;;;;;;;5.45;4.07;;;;;;;30.85;34.37;98670.16;4472367;31;33355;-61
2023/07/01 09:54:38;;;;;;;8.32;4.53;;;;;;;30.26;34.40;98664.97;4466944;31;33078;-63
2023/07/01 09:57:06;;;;;;;7.93;4.50;;;;;;;30.14;35.37;98667.91;4474430;31;35191;-63
2023/07/01 09:59:33;;;;;;;6.78;3.90;;;;;;;30.65;34.79;98659.87;4474998;31;33922;-63
2023/07/01 10:02:02;;;;;;;6.20;3.95;;;;;;;30.89;33.52;98659.41;4475500;31;34357;-63
2023/07/01 10:04:30;;;;;;;8.45;4.32;;;;;;;31.07;34.61;98654.16;4479673;31;33085;-63
2023/07/01 10:06:58;;;;;;;7.78;4.10;;;;;;;30.96;34.68;98652.50;4478528;31;33614;-62
2023/07/01 10:09:27;;;;;;;8.43;5.03;;;;;;;31.08;33.66;98649.50;4479526;31;32853;-63
2023/07/01 10:11:57;;;;;;;6.97;4.35;;;;;;;31.16;34.75;98654.44;4473048;31;34721;-62
2023/07/01 10:14:26;;;;;;;8.02;4.75;;;;;;;30.57;35.36;98654.88;4470600;31;33495;-63
2023/07/01 10:16:53;;;;;;;7.00;4.57;;;;;;;30.98;35.79;98654.97;4471722;31;33482;-62
2023/07/01 10:19:32;;;;;;;6.18;3.67;;;;;;;30.32;35.45;98652.87;4475560;31;35972;-62
2023/07/01 10:22:25;;;;;;;6.35;4.65;;;;;;;31.03;33.68;98646.72;4477121;31;34910;-64
2023/07/01 10:25:03;;;;;;;6.28;3.85;;;;;;;30.74;34.51;98647.19;4474288;31;33377;-63
2023/07/01 10:27:40;;;;;;;12.88;4.35;;;;;;;30.53;35.90;98651.00;4468888;31;32625;-62
2023/07/01 10:30:10;;;;;;;6.37;4.30;;;;;;;31.05;34.81;98648.09;4476548;31;34787;-63
2023/07/01 10:32:38;;;;;;;6.85;4.43;;;;;;;30.33;35.06;98646.22;4478588;31;33720;-63
2023/07/01 10:35:07;;;;;;;6.57;4.03;;;;;;;30.67;34.33;98648.56;4470473;31;34504;-63
2023/07/01 10:37:35;;;;;;;6.95;4.45;;;;;;;30.99;33.12;98651.13;4478431;31;33905;-63
2023/07/01 10:40:28;;;;;;;8.70;4.70;;;;;;;30.79;34.33;98646.41;4474754;31;34568;-62
2023/07/01 10:43:38;;;;;;;7.55;4.40;;;;;;;31.45;34.74;98642.88;4475401;31;33539;-63
2023/07/01 10:46:13;;;;;;;7.68;4.87;;;;;;;31.42;33.79;98643.44;4411506;32;33816;-63
2023/07/01 10:49:02;;;;;;;9.65;4.62;;;;;;;31.31;34.59;98643.41;4413223;32;33618;-63
2023/07/01 10:51:31;;;;;;;7.32;4.12;;;;;;;31.10;35.36;98648.09;4366778;32;33762;-61
2023/07/01 10:54:02;;;;;;;7.87;4.28;;;;;;;31.21;33.75;98643.41;4369217;32;33528;-63
2023/07/01 10:56:33;;;;;;;6.55;4.12;;;;;;;31.42;33.52;98644.25;4366934;32;34487;-62
2023/07/01 10:59:21;;;;;;;7.25;3.90;;;;;;;30.89;34.93;98643.66;4367861;32;33847;-62
2023/07/01 11:01:56;;;;;;;7.68;4.10;;;;;;;30.80;34.37;98648.88;4366905;32;33607;-62
2023/07/01 11:04:25;;;;;;;8.38;4.43;;;;;;;30.20;36.29;98655.00;4363528;32;34469;-62
2023/07/01 11:06:54;;;;;;;6.05;3.92;;;;;;;30.90;35.30;98659.13;4354491;32;34054;-60
2023/07/01 11:09:32;;;;;;;8.20;4.72;;;;;;;30.85;34.28;98650.81;4363803;32;33411;-62
2023/07/01 11:12:02;;;;;;;5.70;4.30;;;;;;;30.78;34.19;98648.31;4362054;32;35367;-62
2023/07/01 11:14:33;;;;;;;16.15;4.90;;;;;;;31.23;34.48;98646.72;4371070;32;34755;-61
2023/07/01 11:17:06;;;;;;;5.50;3.97;;;;;;;30.99;34.10;98640.91;4362127;32;33492;-62
2023/07/01 11:19:34;;;;;;;7.55;5.43;;;;;;;30.95;34.22;98642.56;4379755;32;34865;-62
2023/07/01 11:22:02;;;;;;;9.63;7.70;;;;;;;30.31;35.02;98637.41;4421019;32;33844;-62
2023/07/01 11:24:30;;;;;;;7.05;5.45;;;;;;;30.28;35.89;98635.19;4423067;32;32168;-62
2023/07/01 11:27:07;;;;;;;7.53;5.03;;;;;;;30.54;35.12;98636.94;4419250;32;33284;-62
2023/07/01 11:29:35;;;;;;;9.02;4.90;;;;;;;30.99;34.13;98637.31;4459733;31;33263;-61
2023/07/01 11:32:09;;;;;;;9.48;5.22;;;;;;;30.52;34.85;98633.59;4471836;31;34956;-62
2023/07/01 11:34:37;;;;;;;7.30;4.60;;;;;;;30.33;35.41;98638.78;4465625;31;32176;-62
2023/07/01 11:37:05;;;;;;;7.00;3.83;;;;;;;30.39;35.33;98632.19;4467240;31;33248;-61
2023/07/01 11:39:42;;;;;;;6.72;4.28;;;;;;;30.73;35.50;98634.50;4465977;31;35046;-62
2023/07/01 11:42:09;;;;;;;5.65;3.67;;;;;;;30.46;34.79;98623.63;4470562;31;33102;-61